sensor_id;sensor_type;location;lat;lon;timestamp;pressure;altitude;pressure_sealevel;temperature;humidity
6835;BME280;3455;42.150;24.734;2023-04-29T00:00:41;66465.22;;;11.17;66.53
6835;BME280;3455;42.150;24.734;2023-04-29T00:03:09;66456.69;;;11.14;66.70
6835;BME280;3455;42.150;24.734;2023-04-29T00:05:36;66449.53;;;11.21;66.08
6835;BME280;3455;42.150;24.734;2023-04-29T00:08:02;66442.16;;;11.19;66.03
6835;BME280;3455;42.150;24.734;2023-04-29T00:10:30;66471.22;;;11.20;65.05
6835;BME280;3455;42.150;24.734;2023-04-29T00:12:57;66452.28;;;10.97;65.46
6835;BME280;3455;42.150;24.734;2023-04-29T00:15:24;66433.03;;;10.93;65.33
6835;BME280;3455;42.150;24.734;2023-04-29T00:17:50;66435.44;;;10.88;65.53
6835;BME280;3455;42.150;24.734;2023-04-29T00:20:17;66439.84;;;11.06;65.19
6835;BME280;3455;42.150;24.734;2023-04-29T00:22:44;66430.16;;;11.13;64.47
6835;BME280;3455;42.150;24.734;2023-04-29T00:25:11;66472.69;;;11.01;65.35
6835;BME280;3455;42.150;24.734;2023-04-29T00:27:39;66454.16;;;11.14;65.08
6835;BME280;3455;42.150;24.734;2023-04-29T00:30:07;66435.59;;;11.27;64.96
6835;BME280;3455;42.150;24.734;2023-04-29T00:32:34;66408.16;;;10.89;65.98
6835;BME280;3455;42.150;24.734;2023-04-29T00:35:01;66414.22;;;10.74;67.16
6835;BME280;3455;42.150;24.734;2023-04-29T00:37:27;66426.41;;;10.56;67.74
6835;BME280;3455;42.150;24.734;2023-04-29T00:39:54;66395.94;;;10.33;67.63
6835;BME280;3455;42.150;24.734;2023-04-29T00:42:21;66375.50;;;10.58;67.09
6835;BME280;3455;42.150;24.734;2023-04-29T00:44:49;66455.38;;;10.86;66.34
6835;BME280;3455;42.150;24.734;2023-04-29T00:47:16;66410.94;;;10.46;67.42
6835;BME280;3455;42.150;24.734;2023-04-29T00:49:42;66390.16;;;10.68;66.97
6835;BME280;3455;42.150;24.734;2023-04-29T00:52:10;66331.88;;;10.17;68.46
6835;BME280;3455;42.150;24.734;2023-04-29T00:54:37;66371.50;;;10.25;68.57
6835;BME280;3455;42.150;24.734;2023-04-29T00:57:04;66346.41;;;10.11;68.97
6835;BME280;3455;42.150;24.734;2023-04-29T00:59:32;66393.63;;;10.31;68.17
6835;BME280;3455;42.150;24.734;2023-04-29T01:02:01;66388.41;;;10.26;69.00
6835;BME280;3455;42.150;24.734;2023-04-29T01:04:28;66384.41;;;10.23;69.12
6835;BME280;3455;42.150;24.734;2023-04-29T01:07:01;66306.09;;;10.09;70.20
6835;BME280;3455;42.150;24.734;2023-04-29T01:09:41;66346.13;;;10.02;69.37
6835;BME280;3455;42.150;24.734;2023-04-29T01:12:21;66333.38;;;10.09;68.76
6835;BME280;3455;42.150;24.734;2023-04-29T01:14:55;66353.53;;;10.16;68.28
6835;BME280;3455;42.150;24.734;2023-04-29T01:17:31;66329.09;;;9.96;68.70
6835;BME280;3455;42.150;24.734;2023-04-29T01:20:00;66336.97;;;9.76;69.73
6835;BME280;3455;42.150;24.734;2023-04-29T01:22:28;66306.63;;;9.76;69.41
6835;BME280;3455;42.150;24.734;2023-04-29T01:24:56;66282.00;;;9.81;68.99
6835;BME280;3455;42.150;24.734;2023-04-29T01:27:28;66248.72;;;9.56;69.38
6835;BME280;3455;42.150;24.734;2023-04-29T01:30:01;66328.06;;;9.59;69.70
6835;BME280;3455;42.150;24.734;2023-04-29T01:32:42;66409.34;;;9.32;69.69
6835;BME280;3455;42.150;24.734;2023-04-29T01:35:21;66247.09;;;9.37;70.26
6835;BME280;3455;42.150;24.734;2023-04-29T01:37:56;66301.41;;;9.60;69.70
6835;BME280;3455;42.150;24.734;2023-04-29T01:40:33;66268.88;;;9.63;69.22
6835;BME280;3455;42.150;24.734;2023-04-29T01:43:03;66278.91;;;9.29;70.38
6835;BME280;3455;42.150;24.734;2023-04-29T01:45:37;66296.75;;;9.45;69.98
6835;BME280;3455;42.150;24.734;2023-04-29T01:48:05;66297.38;;;9.27;70.11
6835;BME280;3455;42.150;24.734;2023-04-29T01:50:32;66269.09;;;9.20;70.47
6835;BME280;3455;42.150;24.734;2023-04-29T01:52:59;66293.47;;;9.28;70.12
6835;BME280;3455;42.150;24.734;2023-04-29T01:55:27;66301.56;;;9.35;70.36
6835;BME280;3455;42.150;24.734;2023-04-29T01:57:54;66259.88;;;9.12;70.43
6835;BME280;3455;42.150;24.734;2023-04-29T02:00:21;66307.34;;;9.23;70.80
6835;BME280;3455;42.150;24.734;2023-04-29T02:02:48;66259.97;;;9.34;70.73
6835;BME280;3455;42.150;24.734;2023-04-29T02:05:14;66309.16;;;9.47;70.40
6835;BME280;3455;42.150;24.734;2023-04-29T02:07:41;66319.75;;;9.43;70.74
6835;BME280;3455;42.150;24.734;2023-04-29T02:10:09;66308.47;;;9.42;71.01
6835;BME280;3455;42.150;24.734;2023-04-29T02:12:37;66279.50;;;9.41;71.20
6835;BME280;3455;42.150;24.734;2023-04-29T02:15:05;66301.34;;;9.49;71.19
6835;BME280;3455;42.150;24.734;2023-04-29T02:17:32;66312.19;;;9.54;70.50
6835;BME280;3455;42.150;24.734;2023-04-29T02:19:59;66312.75;;;9.54;70.51
6835;BME280;3455;42.150;24.734;2023-04-29T02:22:26;66263.13;;;9.28;71.32
6835;BME280;3455;42.150;24.734;2023-04-29T02:24:53;66289.50;;;9.07;72.67
6835;BME280;3455;42.150;24.734;2023-04-29T02:27:19;66246.94;;;9.32;71.72
6835;BME280;3455;42.150;24.734;2023-04-29T02:29:48;66292.06;;;9.18;72.15
6835;BME280;3455;42.150;24.734;2023-04-29T02:32:15;66237.13;;;9.12;71.44
6835;BME280;3455;42.150;24.734;2023-04-29T02:34:44;66289.84;;;9.39;70.76
6835;BME280;3455;42.150;24.734;2023-04-29T02:37:11;66328.53;;;9.55;70.04
6835;BME280;3455;42.150;24.734;2023-04-29T02:39:38;66261.53;;;9.31;70.89
6835;BME280;3455;42.150;24.734;2023-04-29T02:42:05;66316.97;;;9.45;70.52
6835;BME280;3455;42.150;24.734;2023-04-29T02:44:32;66349.19;;;9.51;70.05
6835;BME280;3455;42.150;24.734;2023-04-29T02:47:00;66264.94;;;9.52;70.07
6835;BME280;3455;42.150;24.734;2023-04-29T02:49:27;66309.88;;;9.52;69.63
6835;BME280;3455;42.150;24.734;2023-04-29T02:51:53;66286.38;;;9.35;70.55
6835;BME280;3455;42.150;24.734;2023-04-29T02:54:20;66290.28;;;9.34;70.79
6835;BME280;3455;42.150;24.734;2023-04-29T02:56:47;66284.06;;;9.33;70.64
6835;BME280;3455;42.150;24.734;2023-04-29T02:59:13;66261.34;;;9.45;70.32
6835;BME280;3455;42.150;24.734;2023-04-29T03:01:40;66269.66;;;9.21;70.51
6835;BME280;3455;42.150;24.734;2023-04-29T03:04:08;66314.47;;;9.45;70.29
6835;BME280;3455;42.150;24.734;2023-04-29T03:06:35;66273.69;;;9.24;70.54
6835;BME280;3455;42.150;24.734;2023-04-29T03:09:02;66241.44;;;8.95;70.70
6835;BME280;3455;42.150;24.734;2023-04-29T03:11:29;66225.94;;;8.64;71.40
6835;BME280;3455;42.150;24.734;2023-04-29T03:13:55;66200.88;;;8.50;72.35
6835;BME280;3455;42.150;24.734;2023-04-29T03:16:22;66224.16;;;8.80;70.79
6835;BME280;3455;42.150;24.734;2023-04-29T03:18:49;66217.69;;;8.70;71.01
6835;BME280;3455;42.150;24.734;2023-04-29T03:21:17;66219.75;;;8.63;71.14
6835;BME280;3455;42.150;24.734;2023-04-29T03:23:44;66213.41;;;8.57;70.88
6835;BME280;3455;42.150;24.734;2023-04-29T03:26:11;66191.41;;;8.73;70.76
6835;BME280;3455;42.150;24.734;2023-04-29T03:28:38;66231.00;;;8.64;70.73
6835;BME280;3455;42.150;24.734;2023-04-29T03:31:04;66234.31;;;8.62;71.04
6835;BME280;3455;42.150;24.734;2023-04-29T03:33:31;66223.97;;;8.93;69.57
6835;BME280;3455;42.150;24.734;2023-04-29T03:35:58;66242.59;;;8.96;69.53
6835;BME280;3455;42.150;24.734;2023-04-29T03:38:26;66250.56;;;8.81;69.80
6835;BME280;3455;42.150;24.734;2023-04-29T03:40:53;66193.06;;;8.52;70.49
6835;BME280;3455;42.150;24.734;2023-04-29T03:43:20;66198.69;;;8.82;69.57
6835;BME280;3455;42.150;24.734;2023-04-29T03:45:46;66253.53;;;9.06;68.98
6835;BME280;3455;42.150;24.734;2023-04-29T03:48:13;66254.31;;;8.93;69.39
6835;BME280;3455;42.150;24.734;2023-04-29T03:50:40;66291.63;;;9.22;69.21
6835;BME280;3455;42.150;24.734;2023-04-29T03:53:07;66248.00;;;9.40;68.61
6835;BME280;3455;42.150;24.734;2023-04-29T03:55:35;66318.66;;;9.64;68.19
6835;BME280;3455;42.150;24.734;2023-04-29T03:58:01;66275.44;;;9.26;68.08
6835;BME280;3455;42.150;24.734;2023-04-29T04:00:29;66329.47;;;9.69;67.55
6835;BME280;3455;42.150;24.734;2023-04-29T04:02:56;66333.66;;;9.78;66.73
6835;BME280;3455;42.150;24.734;2023-04-29T04:05:23;66363.50;;;10.00;66.36
6835;BME280;3455;42.150;24.734;2023-04-29T04:07:50;66347.28;;;10.03;65.80
6835;BME280;3455;42.150;24.734;2023-04-29T04:10:17;66388.28;;;10.22;64.99
6835;BME280;3455;42.150;24.734;2023-04-29T04:12:45;66356.34;;;10.36;64.79
6835;BME280;3455;42.150;24.734;2023-04-29T04:15:12;66304.31;;;10.37;64.40
6835;BME280;3455;42.150;24.734;2023-04-29T04:17:39;66357.88;;;9.99;65.29
6835;BME280;3455;42.150;24.734;2023-04-29T04:20:07;66350.53;;;10.20;64.77
6835;BME280;3455;42.150;24.734;2023-04-29T04:22:33;66394.28;;;10.13;64.60
6835;BME280;3455;42.150;24.734;2023-04-29T04:25:00;66391.31;;;10.29;64.59
6835;BME280;3455;42.150;24.734;2023-04-29T04:27:27;66374.78;;;10.41;63.60
6835;BME280;3455;42.150;24.734;2023-04-29T04:29:55;66425.91;;;10.48;63.68
6835;BME280;3455;42.150;24.734;2023-04-29T04:32:22;66456.41;;;10.82;63.15
6835;BME280;3455;42.150;24.734;2023-04-29T04:34:49;66395.78;;;10.69;62.61
6835;BME280;3455;42.150;24.734;2023-04-29T04:37:15;66490.78;;;11.04;62.49
6835;BME280;3455;42.150;24.734;2023-04-29T04:39:42;66506.16;;;11.31;60.71
6835;BME280;3455;42.150;24.734;2023-04-29T04:42:09;66460.72;;;11.18;61.05
6835;BME280;3455;42.150;24.734;2023-04-29T04:44:36;66506.03;;;11.15;61.40
6835;BME280;3455;42.150;24.734;2023-04-29T04:47:04;66469.69;;;11.17;61.04
6835;BME280;3455;42.150;24.734;2023-04-29T04:49:31;66468.06;;;10.97;62.20
6835;BME280;3455;42.150;24.734;2023-04-29T04:51:58;66428.28;;;10.84;62.39
6835;BME280;3455;42.150;24.734;2023-04-29T04:54:24;66483.69;;;11.34;61.99
6835;BME280;3455;42.150;24.734;2023-04-29T04:56:51;66429.44;;;10.85;62.92
6835;BME280;3455;42.150;24.734;2023-04-29T04:59:20;66473.25;;;11.02;62.40
6835;BME280;3455;42.150;24.734;2023-04-29T05:01:47;66455.19;;;11.22;61.67
6835;BME280;3455;42.150;24.734;2023-04-29T05:04:15;66469.72;;;11.39;61.24
6835;BME280;3455;42.150;24.734;2023-04-29T05:06:41;66455.19;;;11.22;62.49
6835;BME280;3455;42.150;24.734;2023-04-29T05:09:08;66499.28;;;11.47;62.04
6835;BME280;3455;42.150;24.734;2023-04-29T05:11:35;66527.88;;;11.75;60.42
6835;BME280;3455;42.150;24.734;2023-04-29T05:14:02;66494.06;;;11.32;61.14
6835;BME280;3455;42.150;24.734;2023-04-29T05:16:28;66484.81;;;11.12;61.70
6835;BME280;3455;42.150;24.734;2023-04-29T05:18:55;66498.00;;;11.42;60.16
6835;BME280;3455;42.150;24.734;2023-04-29T05:21:23;66455.78;;;11.34;60.56
6835;BME280;3455;42.150;24.734;2023-04-29T05:23:50;66512.50;;;11.37;60.21
6835;BME280;3455;42.150;24.734;2023-04-29T05:26:17;66459.47;;;11.35;59.33
6835;BME280;3455;42.150;24.734;2023-04-29T05:28:43;66536.34;;;11.85;57.81
6835;BME280;3455;42.150;24.734;2023-04-29T05:31:10;66541.84;;;11.58;58.45
6835;BME280;3455;42.150;24.734;2023-04-29T05:33:37;66545.31;;;11.61;58.55
6835;BME280;3455;42.150;24.734;2023-04-29T05:36:04;66582.31;;;12.17;57.36
6835;BME280;3455;42.150;24.734;2023-04-29T05:38:33;66621.13;;;12.33;56.53
6835;BME280;3455;42.150;24.734;2023-04-29T05:40:59;66627.63;;;12.66;56.13
6835;BME280;3455;42.150;24.734;2023-04-29T05:43:26;66686.78;;;13.28;53.58
6835;BME280;3455;42.150;24.734;2023-04-29T05:45:53;66713.28;;;13.47;52.62
6835;BME280;3455;42.150;24.734;2023-04-29T05:48:20;66781.41;;;14.02;50.94
6835;BME280;3455;42.150;24.734;2023-04-29T05:50:47;66904.13;;;15.34;48.22
6835;BME280;3455;42.150;24.734;2023-04-29T05:53:14;66970.53;;;16.22;45.50
6835;BME280;3455;42.150;24.734;2023-04-29T05:55:42;67091.81;;;16.96;43.04
6835;BME280;3455;42.150;24.734;2023-04-29T05:58:09;67234.47;;;18.17;41.36
6835;BME280;3455;42.150;24.734;2023-04-29T06:00:36;67393.16;;;19.62;38.33
6835;BME280;3455;42.150;24.734;2023-04-29T06:03:03;67433.56;;;20.11;36.53
6835;BME280;3455;42.150;24.734;2023-04-29T06:05:29;67398.84;;;19.90;36.58
6835;BME280;3455;42.150;24.734;2023-04-29T06:07:56;67406.81;;;19.88;35.66
6835;BME280;3455;42.150;24.734;2023-04-29T06:10:23;67438.31;;;20.20;35.52
6835;BME280;3455;42.150;24.734;2023-04-29T06:12:51;67503.69;;;20.59;34.80
6835;BME280;3455;42.150;24.734;2023-04-29T06:15:18;67445.75;;;19.63;35.86
6835;BME280;3455;42.150;24.734;2023-04-29T06:17:45;67384.50;;;19.43;35.74
6835;BME280;3455;42.150;24.734;2023-04-29T06:20:13;67467.28;;;20.41;35.59
6835;BME280;3455;42.150;24.734;2023-04-29T06:22:39;67649.91;;;21.93;33.71
6835;BME280;3455;42.150;24.734;2023-04-29T06:25:07;67672.22;;;21.90;32.84
6835;BME280;3455;42.150;24.734;2023-04-29T06:27:34;67720.09;;;22.37;31.98
6835;BME280;3455;42.150;24.734;2023-04-29T06:30:02;67661.56;;;21.12;33.01
6835;BME280;3455;42.150;24.734;2023-04-29T06:32:29;67647.31;;;20.86;34.42
6835;BME280;3455;42.150;24.734;2023-04-29T06:34:55;67688.84;;;22.23;33.00
6835;BME280;3455;42.150;24.734;2023-04-29T06:37:22;67859.81;;;23.46;30.89
6835;BME280;3455;42.150;24.734;2023-04-29T06:39:49;67726.31;;;22.65;30.97
6835;BME280;3455;42.150;24.734;2023-04-29T06:42:15;67824.63;;;23.38;31.33
6835;BME280;3455;42.150;24.734;2023-04-29T06:44:42;67896.53;;;23.74;30.19
6835;BME280;3455;42.150;24.734;2023-04-29T06:47:10;67939.63;;;24.23;28.50
6835;BME280;3455;42.150;24.734;2023-04-29T06:49:37;67770.53;;;23.36;29.02
6835;BME280;3455;42.150;24.734;2023-04-29T06:52:04;67916.72;;;23.78;28.19
6835;BME280;3455;42.150;24.734;2023-04-29T06:54:31;67906.22;;;24.05;28.61
6835;BME280;3455;42.150;24.734;2023-04-29T06:56:57;67842.28;;;23.62;28.40
6835;BME280;3455;42.150;24.734;2023-04-29T06:59:24;67936.88;;;24.14;29.40
6835;BME280;3455;42.150;24.734;2023-04-29T07:01:51;68083.84;;;25.24;27.62
6835;BME280;3455;42.150;24.734;2023-04-29T07:04:19;67963.72;;;24.37;27.87
6835;BME280;3455;42.150;24.734;2023-04-29T07:06:46;68082.66;;;25.23;28.25
6835;BME280;3455;42.150;24.734;2023-04-29T07:09:13;68055.94;;;25.30;27.03
6835;BME280;3455;42.150;24.734;2023-04-29T07:11:40;68081.47;;;25.22;27.19
6835;BME280;3455;42.150;24.734;2023-04-29T07:14:08;67776.97;;;23.05;29.16
6835;BME280;3455;42.150;24.734;2023-04-29T07:16:34;67624.44;;;21.80;30.81
6835;BME280;3455;42.150;24.734;2023-04-29T07:19:01;68001.13;;;24.70;28.15
6835;BME280;3455;42.150;24.734;2023-04-29T07:21:29;68002.94;;;24.76;26.73
6835;BME280;3455;42.150;24.734;2023-04-29T07:23:56;68185.13;;;25.86;25.93
6835;BME280;3455;42.150;24.734;2023-04-29T07:26:25;68350.31;;;26.94;24.24
6835;BME280;3455;42.150;24.734;2023-04-29T07:28:52;68275.31;;;26.65;24.54
6835;BME280;3455;42.150;24.734;2023-04-29T07:31:19;68167.81;;;25.84;26.03
6835;BME280;3455;42.150;24.734;2023-04-29T07:33:46;68229.50;;;26.16;25.10
6835;BME280;3455;42.150;24.734;2023-04-29T07:36:13;68187.28;;;26.11;25.64
6835;BME280;3455;42.150;24.734;2023-04-29T07:38:41;68220.09;;;26.44;24.94
6835;BME280;3455;42.150;24.734;2023-04-29T07:41:08;68181.94;;;26.01;25.62
6835;BME280;3455;42.150;24.734;2023-04-29T07:43:35;68242.38;;;26.27;24.49
6835;BME280;3455;42.150;24.734;2023-04-29T07:46:01;68111.88;;;25.49;25.57
6835;BME280;3455;42.150;24.734;2023-04-29T07:48:28;68156.81;;;25.84;24.46
6835;BME280;3455;42.150;24.734;2023-04-29T07:50:55;68211.97;;;26.21;25.86
6835;BME280;3455;42.150;24.734;2023-04-29T07:53:21;68351.84;;;27.39;23.86
6835;BME280;3455;42.150;24.734;2023-04-29T07:55:50;68497.41;;;28.19;23.10
6835;BME280;3455;42.150;24.734;2023-04-29T07:58:17;68384.91;;;27.45;23.31
6835;BME280;3455;42.150;24.734;2023-04-29T08:00:44;68346.28;;;27.16;24.28
6835;BME280;3455;42.150;24.734;2023-04-29T08:03:11;68461.47;;;27.78;23.50
6835;BME280;3455;42.150;24.734;2023-04-29T08:05:38;68400.84;;;27.48;23.47
6835;BME280;3455;42.150;24.734;2023-04-29T08:08:05;68569.53;;;28.77;22.29
6835;BME280;3455;42.150;24.734;2023-04-29T08:10:32;68552.63;;;28.71;21.78
6835;BME280;3455;42.150;24.734;2023-04-29T08:13:00;68759.81;;;29.98;20.50
6835;BME280;3455;42.150;24.734;2023-04-29T08:15:26;68943.56;;;30.85;20.35
6835;BME280;3455;42.150;24.734;2023-04-29T08:17:53;68929.94;;;31.10;20.08
6835;BME280;3455;42.150;24.734;2023-04-29T08:20:20;68836.25;;;30.64;20.70
6835;BME280;3455;42.150;24.734;2023-04-29T08:22:47;69041.34;;;31.66;19.29
6835;BME280;3455;42.150;24.734;2023-04-29T08:25:14;68605.78;;;29.00;21.56
6835;BME280;3455;42.150;24.734;2023-04-29T08:27:41;68432.66;;;28.30;22.05
6835;BME280;3455;42.150;24.734;2023-04-29T08:30:12;68428.31;;;28.08;22.08
6835;BME280;3455;42.150;24.734;2023-04-29T08:32:38;68586.41;;;28.83;21.37
6835;BME280;3455;42.150;24.734;2023-04-29T08:35:06;68633.66;;;29.22;22.46
6835;BME280;3455;42.150;24.734;2023-04-29T08:37:33;68730.91;;;30.09;20.57
6835;BME280;3455;42.150;24.734;2023-04-29T08:40:00;68705.53;;;29.78;21.02
6835;BME280;3455;42.150;24.734;2023-04-29T08:42:32;68657.38;;;29.61;20.08
6835;BME280;3455;42.150;24.734;2023-04-29T08:45:02;68872.91;;;30.64;20.07
6835;BME280;3455;42.150;24.734;2023-04-29T08:47:32;68778.22;;;30.27;20.96
6835;BME280;3455;42.150;24.734;2023-04-29T08:50:01;68826.22;;;30.51;19.93
6835;BME280;3455;42.150;24.734;2023-04-29T08:52:29;68554.44;;;28.78;21.53
6835;BME280;3455;42.150;24.734;2023-04-29T08:54:57;68548.78;;;28.45;21.80
6835;BME280;3455;42.150;24.734;2023-04-29T08:57:25;68373.69;;;27.51;22.49
6835;BME280;3455;42.150;24.734;2023-04-29T08:59:53;68148.16;;;26.01;23.85
6835;BME280;3455;42.150;24.734;2023-04-29T09:02:21;68301.59;;;26.84;23.28
6835;BME280;3455;42.150;24.734;2023-04-29T09:04:54;68210.16;;;26.35;23.68
6835;BME280;3455;42.150;24.734;2023-04-29T09:07:23;68226.53;;;26.50;23.96
6835;BME280;3455;42.150;24.734;2023-04-29T09:09:50;68274.69;;;26.80;23.18
6835;BME280;3455;42.150;24.734;2023-04-29T09:12:18;68278.69;;;26.79;23.46
6835;BME280;3455;42.150;24.734;2023-04-29T09:14:46;68447.03;;;27.79;23.28
6835;BME280;3455;42.150;24.734;2023-04-29T09:17:12;68356.59;;;27.27;22.60
6835;BME280;3455;42.150;24.734;2023-04-29T09:19:41;68422.13;;;28.21;21.23
6835;BME280;3455;42.150;24.734;2023-04-29T09:22:10;68523.69;;;28.32;20.82
6835;BME280;3455;42.150;24.734;2023-04-29T09:24:37;68644.13;;;29.22;20.63
6835;BME280;3455;42.150;24.734;2023-04-29T09:27:04;68640.59;;;29.19;20.26
6835;BME280;3455;42.150;24.734;2023-04-29T09:29:31;68570.09;;;28.78;20.72
6835;BME280;3455;42.150;24.734;2023-04-29T09:31:59;68562.88;;;28.78;21.36
6835;BME280;3455;42.150;24.734;2023-04-29T09:34:33;68742.94;;;29.97;19.94
6835;BME280;3455;42.150;24.734;2023-04-29T09:37:23;69166.31;;;31.47;19.22
6835;BME280;3455;42.150;24.734;2023-04-29T09:39:52;68930.38;;;30.96;18.82
6835;BME280;3455;42.150;24.734;2023-04-29T09:42:19;69046.53;;;31.61;19.72
6835;BME280;3455;42.150;24.734;2023-04-29T09:44:46;69185.28;;;32.50;17.71
6835;BME280;3455;42.150;24.734;2023-04-29T09:47:13;69026.84;;;31.71;18.19
6835;BME280;3455;42.150;24.734;2023-04-29T09:49:40;68997.47;;;31.75;18.32
6835;BME280;3455;42.150;24.734;2023-04-29T09:52:11;68979.97;;;31.49;18.59
6835;BME280;3455;42.150;24.734;2023-04-29T09:54:40;68882.97;;;30.78;18.98
6835;BME280;3455;42.150;24.734;2023-04-29T09:57:08;69093.94;;;32.20;17.82
6835;BME280;3455;42.150;24.734;2023-04-29T09:59:37;69131.19;;;32.16;17.06
6835;BME280;3455;42.150;24.734;2023-04-29T10:02:09;69261.84;;;33.03;17.03
6835;BME280;3455;42.150;24.734;2023-04-29T10:04:40;69201.41;;;32.77;17.66
6835;BME280;3455;42.150;24.734;2023-04-29T10:07:08;69023.31;;;31.68;17.53
6835;BME280;3455;42.150;24.734;2023-04-29T10:09:36;69276.69;;;33.00;16.30
6835;BME280;3455;42.150;24.734;2023-04-29T10:12:06;69172.44;;;32.48;16.74
6835;BME280;3455;42.150;24.734;2023-04-29T10:14:38;69228.81;;;32.33;17.23
6835;BME280;3455;42.150;24.734;2023-04-29T10:17:12;69062.88;;;32.07;17.23
6835;BME280;3455;42.150;24.734;2023-04-29T10:19:51;69083.97;;;32.16;16.63
6835;BME280;3455;42.150;24.734;2023-04-29T10:22:27;69067.22;;;31.84;16.41
6835;BME280;3455;42.150;24.734;2023-04-29T10:24:56;69136.69;;;32.35;16.57
6835;BME280;3455;42.150;24.734;2023-04-29T10:27:26;69128.00;;;32.41;17.01
6835;BME280;3455;42.150;24.734;2023-04-29T10:29:55;69333.41;;;33.24;17.05
6835;BME280;3455;42.150;24.734;2023-04-29T10:32:25;69296.00;;;33.23;15.81
6835;BME280;3455;42.150;24.734;2023-04-29T10:34:53;69268.50;;;32.97;15.80
6835;BME280;3455;42.150;24.734;2023-04-29T10:37:21;69380.31;;;33.83;15.77
6835;BME280;3455;42.150;24.734;2023-04-29T10:39:52;69304.44;;;32.98;15.80
6835;BME280;3455;42.150;24.734;2023-04-29T10:42:32;69305.03;;;33.45;16.41
6835;BME280;3455;42.150;24.734;2023-04-29T10:45:16;69709.34;;;35.67;14.04
6835;BME280;3455;42.150;24.734;2023-04-29T10:48:07;69217.00;;;32.89;15.31
6835;BME280;3455;42.150;24.734;2023-04-29T10:53:23;69458.56;;;34.19;15.79
6835;BME280;3455;42.150;24.734;2023-04-29T10:55:53;69279.06;;;33.47;15.09
6835;BME280;3455;42.150;24.734;2023-04-29T10:58:41;69489.53;;;34.39;14.31
6835;BME280;3455;42.150;24.734;2023-04-29T11:01:12;69497.72;;;34.62;14.55
6835;BME280;3455;42.150;24.734;2023-04-29T11:03:50;69572.94;;;34.81;14.03
6835;BME280;3455;42.150;24.734;2023-04-29T11:06:23;68818.84;;;30.67;16.41
6835;BME280;3455;42.150;24.734;2023-04-29T11:09:01;68989.97;;;31.57;16.04
6835;BME280;3455;42.150;24.734;2023-04-29T11:11:40;68924.19;;;31.14;15.72
6835;BME280;3455;42.150;24.734;2023-04-29T11:14:09;68757.59;;;30.05;16.93
6835;BME280;3455;42.150;24.734;2023-04-29T11:16:37;68903.00;;;30.95;16.52
6835;BME280;3455;42.150;24.734;2023-04-29T11:19:05;69061.97;;;31.84;15.72
6835;BME280;3455;42.150;24.734;2023-04-29T11:21:33;69032.75;;;31.76;15.57
6835;BME280;3455;42.150;24.734;2023-04-29T11:24:01;69372.59;;;33.51;15.03
6835;BME280;3455;42.150;24.734;2023-04-29T11:26:28;69454.59;;;34.29;13.72
6835;BME280;3455;42.150;24.734;2023-04-29T11:28:56;69436.84;;;34.13;15.18
6835;BME280;3455;42.150;24.734;2023-04-29T11:31:29;69743.81;;;35.56;13.17
6835;BME280;3455;42.150;24.734;2023-04-29T11:33:56;69358.88;;;33.75;13.84
6835;BME280;3455;42.150;24.734;2023-04-29T11:36:24;69253.16;;;33.09;14.56
6835;BME280;3455;42.150;24.734;2023-04-29T11:38:52;69433.28;;;34.10;13.47
6835;BME280;3455;42.150;24.734;2023-04-29T11:41:19;69192.78;;;32.88;14.61
6835;BME280;3455;42.150;24.734;2023-04-29T11:43:54;68978.06;;;31.38;15.16
6835;BME280;3455;42.150;24.734;2023-04-29T11:46:21;68890.63;;;30.84;17.07
6835;BME280;3455;42.150;24.734;2023-04-29T11:48:49;69077.69;;;32.04;14.58
6835;BME280;3455;42.150;24.734;2023-04-29T11:51:16;69065.63;;;31.96;15.02
6835;BME280;3455;42.150;24.734;2023-04-29T11:53:44;69205.41;;;32.72;14.95
6835;BME280;3455;42.150;24.734;2023-04-29T11:56:11;69117.94;;;32.28;15.41
6835;BME280;3455;42.150;24.734;2023-04-29T11:58:38;69072.19;;;32.06;14.84
6835;BME280;3455;42.150;24.734;2023-04-29T12:01:05;69110.84;;;32.22;15.06
6835;BME280;3455;42.150;24.734;2023-04-29T12:03:32;69412.31;;;33.69;13.56
6835;BME280;3455;42.150;24.734;2023-04-29T12:06:02;69259.69;;;33.14;13.28
6835;BME280;3455;42.150;24.734;2023-04-29T12:08:29;69117.50;;;32.41;13.60
6835;BME280;3455;42.150;24.734;2023-04-29T12:10:59;69072.31;;;31.95;14.18
6835;BME280;3455;42.150;24.734;2023-04-29T12:13:28;69023.84;;;31.64;14.49
6835;BME280;3455;42.150;24.734;2023-04-29T12:15:56;69031.28;;;31.77;14.88
6835;BME280;3455;42.150;24.734;2023-04-29T12:18:23;69001.31;;;31.56;14.92
6835;BME280;3455;42.150;24.734;2023-04-29T12:20:52;68863.53;;;30.81;14.46
6835;BME280;3455;42.150;24.734;2023-04-29T12:23:22;69036.03;;;30.99;15.71
6835;BME280;3455;42.150;24.734;2023-04-29T12:25:51;68838.75;;;30.55;15.70
6835;BME280;3455;42.150;24.734;2023-04-29T12:28:19;68651.47;;;29.30;16.25
6835;BME280;3455;42.150;24.734;2023-04-29T12:30:47;68575.41;;;28.82;16.87
6835;BME280;3455;42.150;24.734;2023-04-29T12:33:20;68424.47;;;28.23;17.17
6835;BME280;3455;42.150;24.734;2023-04-29T12:35:48;68496.19;;;28.54;17.26
6835;BME280;3455;42.150;24.734;2023-04-29T12:38:21;68623.34;;;29.31;15.92
6835;BME280;3455;42.150;24.734;2023-04-29T12:40:48;68551.03;;;28.84;17.44
6835;BME280;3455;42.150;24.734;2023-04-29T12:43:15;68596.72;;;28.94;16.63
6835;BME280;3455;42.150;24.734;2023-04-29T12:45:43;68410.81;;;27.98;18.41
6835;BME280;3455;42.150;24.734;2023-04-29T12:48:10;68546.75;;;28.66;17.06
6835;BME280;3455;42.150;24.734;2023-04-29T12:50:38;68764.53;;;30.02;16.55
6835;BME280;3455;42.150;24.734;2023-04-29T12:53:07;68921.00;;;30.93;15.49
6835;BME280;3455;42.150;24.734;2023-04-29T12:55:36;68805.81;;;30.47;15.66
6835;BME280;3455;42.150;24.734;2023-04-29T12:58:04;68850.03;;;30.49;15.79
6835;BME280;3455;42.150;24.734;2023-04-29T13:00:31;68795.03;;;30.24;16.49
6835;BME280;3455;42.150;24.734;2023-04-29T13:03:01;68645.50;;;29.62;17.32
6835;BME280;3455;42.150;24.734;2023-04-29T13:05:28;68618.13;;;29.31;17.81
6835;BME280;3455;42.150;24.734;2023-04-29T13:07:55;68860.97;;;30.86;16.04
6835;BME280;3455;42.150;24.734;2023-04-29T13:10:22;68882.44;;;31.02;15.89
6835;BME280;3455;42.150;24.734;2023-04-29T13:12:50;68818.09;;;30.53;16.22
6835;BME280;3455;42.150;24.734;2023-04-29T13:15:17;68754.06;;;30.02;16.25
6835;BME280;3455;42.150;24.734;2023-04-29T13:17:44;68639.25;;;29.29;16.92
6835;BME280;3455;42.150;24.734;2023-04-29T13:20:11;68373.38;;;27.69;19.37